Terminal Aerodrome Forecast
Issued by NWS Tulsa, OK

Home | Current Version | Previous Version | Text Only | Print | Product List | Glossary On
Versions: 1 2 3 4 5 6 7 8 9 10 11 12 13 14 15 16 17
000
FTUS44 KTSA 311700 RRA
TAFFSM
TAF
KFSM 311740Z 3118/0118 08005KT P6SM BKN015 OVC050
     FM312100 07006KT P6SM OVC025
     FM010900 09002KT 5SM BR BKN012
     FM011500 07003KT P6SM BKN025=

USA.gov is the U.S. government's official web portal to all federal, state and local government web resources and services.